Time;durP1;ratioP1;P1;durP2;ratioP2;P2;SDS_P1;SDS_P2;PMS_P1;PMS_P2;Temp;Humidity;BMP_temperature;BMP_pressure;BME280_temperature;BME280_humidity;BME280_pressure;Samples;Min_cycle;Max_cycle;Signal;HPM_P1;HPM_P2
2023/10/08 00:03:29;;;;;;;9.40;2.88;;;19.10;99.90;;;;;;4969894;28;20038;-80
2023/10/08 00:05:55;;;;;;;8.82;2.85;;;19.10;99.90;;;;;;5002972;28;20052;-80
2023/10/08 00:08:21;;;;;;;11.45;3.15;;;19.10;99.90;;;;;;4989911;28;20037;-84
2023/10/08 00:10:47;;;;;;;9.93;3.38;;;19.10;99.90;;;;;;5011614;28;20092;-80
2023/10/08 00:13:15;;;;;;;12.82;3.20;;;19.00;99.90;;;;;;5012824;28;20474;-80
2023/10/08 00:15:55;;;;;;;7.60;3.33;;;19.00;99.90;;;;;;5012211;28;20065;-81
2023/10/08 00:18:22;;;;;;;14.55;3.33;;;19.00;99.90;;;;;;5012065;28;20481;-83
2023/10/08 00:20:58;;;;;;;5.60;3.05;;;18.90;99.90;;;;;;5011318;28;20037;-83
2023/10/08 00:23:25;;;;;;;6.85;2.70;;;18.90;99.90;;;;;;5011130;28;20034;-82
2023/10/08 00:25:54;;;;;;;14.30;3.00;;;18.90;99.90;;;;;;5014039;28;20033;-83
2023/10/08 00:28:24;;;;;;;9.95;3.35;;;18.90;99.90;;;;;;5011344;28;20430;-82
2023/10/08 00:30:50;;;;;;;6.25;3.17;;;18.90;99.90;;;;;;4989343;28;20044;-80
2023/10/08 00:33:16;;;;;;;9.60;3.10;;;18.80;99.90;;;;;;4994739;28;20026;-82
2023/10/08 00:35:42;;;;;;;11.52;3.20;;;18.80;99.90;;;;;;5012075;28;20018;-80
2023/10/08 00:38:16;;;;;;;9.02;3.53;;;18.80;99.90;;;;;;5011950;28;20413;-79
2023/10/08 00:40:45;;;;;;;5.32;2.67;;;18.80;99.90;;;;;;5011512;28;20029;-79
2023/10/08 00:43:34;;;;;;;9.23;3.22;;;18.70;99.90;;;;;;5011340;28;20037;-78
2023/10/08 00:46:18;;;;;;;7.32;2.78;;;18.70;99.90;;;;;;4988676;28;20208;-76
2023/10/08 00:48:47;;;;;;;8.05;2.58;;;18.70;99.90;;;;;;5011845;28;20045;-79
2023/10/08 00:51:26;;;;;;;8.07;2.95;;;18.70;99.90;;;;;;4993834;28;20045;-79
2023/10/08 00:53:59;;;;;;;10.25;2.88;;;18.70;99.90;;;;;;5011662;28;20676;-80
2023/10/08 00:56:46;;;;;;;6.13;2.63;;;18.70;99.90;;;;;;4986316;28;20045;-78
2023/10/08 00:59:15;;;;;;;8.82;3.40;;;18.70;99.90;;;;;;4985542;28;20045;-82
2023/10/08 01:01:58;;;;;;;5.30;2.55;;;18.70;99.90;;;;;;5006490;28;20036;-78
2023/10/08 01:04:26;;;;;;;9.82;3.00;;;18.60;99.90;;;;;;5009901;28;20030;-78
2023/10/08 01:07:01;;;;;;;9.02;3.35;;;18.60;99.90;;;;;;5005495;28;20121;-80
2023/10/08 01:09:35;;;;;;;6.40;3.22;;;18.60;99.90;;;;;;5010384;28;20127;-82
2023/10/08 01:15:04;;;;;;;8.85;3.20;;;18.50;99.90;;;;;;4994781;28;20022;-80
2023/10/08 01:17:32;;;;;;;10.85;3.75;;;18.50;99.90;;;;;;5010212;28;20122;-80
2023/10/08 01:20:10;;;;;;;6.15;3.08;;;18.50;99.90;;;;;;4992866;28;20038;-78
2023/10/08 01:22:39;;;;;;;9.43;3.60;;;18.50;99.90;;;;;;5010412;28;20030;-82
2023/10/08 01:25:05;;;;;;;8.52;3.15;;;18.40;99.90;;;;;;5009546;28;20033;-79
2023/10/08 01:27:34;;;;;;;9.93;3.10;;;18.40;99.90;;;;;;5010040;28;20622;-78
2023/10/08 01:30:20;;;;;;;6.57;3.28;;;18.40;99.90;;;;;;5006219;28;20034;-81
2023/10/08 01:32:45;;;;;;;9.70;3.15;;;18.30;99.90;;;;;;5014413;28;20068;-83
2023/10/08 01:35:23;;;;;;;8.60;3.20;;;18.30;99.90;;;;;;4994497;28;20596;-77
2023/10/08 01:37:56;;;;;;;8.70;3.28;;;18.20;99.90;;;;;;5015977;28;20112;-81
2023/10/08 01:40:22;;;;;;;5.40;2.88;;;18.20;99.90;;;;;;5015436;28;20034;-79
2023/10/08 01:42:51;;;;;;;6.80;2.50;;;18.10;99.90;;;;;;5000903;28;20029;-79
2023/10/08 01:45:18;;;;;;;6.57;3.13;;;18.10;99.90;;;;;;5016641;28;20029;-75
2023/10/08 01:47:44;;;;;;;7.35;3.42;;;18.10;99.90;;;;;;5017220;28;20045;-78
2023/10/08 01:50:21;;;;;;;8.00;2.95;;;18.10;99.90;;;;;;5018925;28;20037;-75
2023/10/08 01:52:47;;;;;;;7.30;3.15;;;18.00;99.90;;;;;;5018767;28;20038;-80
2023/10/08 01:55:17;;;;;;;7.15;3.53;;;18.00;99.90;;;;;;5010570;28;20028;-75
2023/10/08 01:57:43;;;;;;;9.68;3.33;;;18.00;99.90;;;;;;5005880;28;20028;-80
2023/10/08 02:00:11;;;;;;;12.57;3.22;;;18.00;99.90;;;;;;5026909;28;20022;-74
2023/10/08 02:02:40;;;;;;;10.70;3.17;;;17.90;99.90;;;;;;5018944;28;20030;-80
2023/10/08 02:05:06;;;;;;;7.35;3.35;;;17.90;99.90;;;;;;5037176;28;20014;-73
2023/10/08 02:07:33;;;;;;;7.57;3.03;;;17.80;99.90;;;;;;5032204;28;20149;-75
2023/10/08 02:09:59;;;;;;;7.82;3.13;;;17.80;99.90;;;;;;5013572;28;20034;-74
2023/10/08 02:12:27;;;;;;;13.57;3.13;;;17.80;99.90;;;;;;5037310;28;20034;-73
2023/10/08 02:14:53;;;;;;;10.27;3.83;;;17.70;99.90;;;;;;5033501;28;21004;-73
2023/10/08 02:17:19;;;;;;;9.20;3.20;;;17.70;99.90;;;;;;5019268;28;20033;-74
2023/10/08 02:19:45;;;;;;;8.32;3.03;;;17.70;99.90;;;;;;5020918;28;20061;-73
2023/10/08 02:22:11;;;;;;;11.07;3.30;;;17.70;99.90;;;;;;5020808;28;20014;-73
2023/10/08 02:24:37;;;;;;;8.07;2.60;;;17.60;99.90;;;;;;5018236;28;20037;-73
2023/10/08 02:27:03;;;;;;;8.45;3.53;;;17.60;99.90;;;;;;5020380;28;20017;-73
2023/10/08 02:29:32;;;;;;;8.63;3.33;;;17.60;99.90;;;;;;5019866;28;20098;-74
2023/10/08 02:31:58;;;;;;;6.93;3.13;;;17.60;99.90;;;;;;5038451;28;20026;-75
2023/10/08 02:34:30;;;;;;;6.80;2.60;;;17.60;99.90;;;;;;5017416;28;20044;-74
2023/10/08 02:36:59;;;;;;;8.23;3.28;;;17.60;99.90;;;;;;5037066;28;20025;-74
2023/10/08 02:39:29;;;;;;;8.68;3.53;;;17.60;99.90;;;;;;5037971;28;20034;-74
2023/10/08 02:41:58;;;;;;;7.85;3.28;;;17.60;99.90;;;;;;5018524;28;20030;-73
2023/10/08 02:44:24;;;;;;;7.97;3.50;;;17.60;99.90;;;;;;5028115;28;20018;-73
2023/10/08 02:46:51;;;;;;;7.95;2.70;;;17.50;99.90;;;;;;5033383;28;20026;-74
2023/10/08 02:49:22;;;;;;;10.50;4.18;;;17.60;99.90;;;;;;5014788;28;20026;-73
2023/10/08 02:51:50;;;;;;;9.00;3.20;;;17.50;99.90;;;;;;5033145;28;20010;-73
2023/10/08 02:54:20;;;;;;;8.07;3.30;;;17.60;99.90;;;;;;5016389;28;20026;-73
2023/10/08 02:56:51;;;;;;;9.90;2.97;;;17.60;99.90;;;;;;5032858;28;20041;-73
2023/10/08 02:59:22;;;;;;;8.93;3.47;;;17.60;99.90;;;;;;5032428;28;20078;-73
2023/10/08 03:01:49;;;;;;;8.95;3.45;;;17.50;99.90;;;;;;5015341;28;20061;-73
2023/10/08 03:04:18;;;;;;;9.65;3.45;;;17.50;99.90;;;;;;5032409;28;20029;-74
2023/10/08 03:06:51;;;;;;;8.60;2.97;;;17.50;99.90;;;;;;5014443;28;20025;-74
2023/10/08 03:09:20;;;;;;;;;;;17.50;99.90;;;;;;5032957;28;20014;-74
2023/10/08 03:11:48;;;;;;;10.10;3.17;;;17.50;99.90;;;;;;5027720;28;19912;-73
2023/10/08 03:14:23;;;;;;;5.45;3.10;;;17.50;99.90;;;;;;5028850;28;20088;-73
2023/10/08 03:16:53;;;;;;;8.73;3.25;;;17.50;99.90;;;;;;5034164;28;20030;-74
2023/10/08 03:19:21;;;;;;;15.52;3.70;;;17.50;99.90;;;;;;5038056;28;20014;-73
2023/10/08 03:21:57;;;;;;;9.38;4.03;;;17.40;99.90;;;;;;5029769;28;20033;-73
2023/10/08 03:27:41;;;;;;;10.73;3.50;;;17.40;99.90;;;;;;5035438;28;20021;-73
2023/10/08 03:29:54;;;;;;;9.02;3.88;;;17.40;99.90;;;;;;5034459;28;20094;-74
2023/10/08 03:32:26;;;;;;;9.20;3.20;;;17.40;99.90;;;;;;5035191;28;20022;-74
2023/10/08 03:34:54;;;;;;;8.02;3.10;;;17.40;99.90;;;;;;5037475;28;20038;-73
2023/10/08 03:37:29;;;;;;;8.18;2.95;;;17.40;99.90;;;;;;5018085;28;20018;-73
2023/10/08 03:42:49;;;;;;;9.60;3.55;;;17.40;99.90;;;;;;5035042;28;20016;-73
2023/10/08 03:45:22;;;;;;;9.77;3.25;;;17.30;99.90;;;;;;5036593;28;20025;-73
2023/10/08 03:48:03;;;;;;;8.95;3.65;;;17.40;99.90;;;;;;5018090;28;20018;-75
2023/10/08 03:50:40;;;;;;;12.32;4.32;;;17.30;99.90;;;;;;5035540;28;20025;-73
2023/10/08 03:53:11;;;;;;;8.60;3.53;;;17.40;99.90;;;;;;5031207;28;20026;-74
2023/10/08 03:55:40;;;;;;;10.77;3.60;;;17.30;99.90;;;;;;5015610;28;20036;-73
2023/10/08 03:58:10;;;;;;;6.90;3.05;;;17.30;99.90;;;;;;5031275;28;20036;-72
2023/10/08 04:00:41;;;;;;;15.38;3.92;;;17.30;99.90;;;;;;5017652;28;20128;-74
2023/10/08 04:03:11;;;;;;;6.18;3.10;;;17.30;99.90;;;;;;5034609;28;20017;-73
2023/10/08 04:08:58;;;;;;;8.38;3.10;;;17.40;99.90;;;;;;5036102;28;20024;-74
2023/10/08 04:11:32;;;;;;;8.85;3.80;;;17.30;99.90;;;;;;5030082;28;20053;-73
2023/10/08 04:14:02;;;;;;;8.05;3.72;;;17.30;99.90;;;;;;5034612;28;20286;-74
2023/10/08 04:16:36;;;;;;;8.60;3.95;;;17.30;99.90;;;;;;5035962;28;20020;-73
2023/10/08 04:19:05;;;;;;;11.18;3.50;;;17.30;99.90;;;;;;5034912;28;20041;-74
2023/10/08 04:21:33;;;;;;;8.20;3.25;;;17.20;99.90;;;;;;5035072;28;20018;-73
2023/10/08 04:24:08;;;;;;;8.00;3.08;;;17.20;99.90;;;;;;5037791;28;20014;-73
2023/10/08 04:26:34;;;;;;;11.35;3.63;;;17.20;99.90;;;;;;5014191;28;20018;-74
2023/10/08 04:29:02;;;;;;;11.20;3.35;;;17.20;99.90;;;;;;5019554;28;20029;-73
2023/10/08 04:31:38;;;;;;;11.10;3.75;;;17.10;99.90;;;;;;5035924;28;20018;-73
2023/10/08 04:34:15;;;;;;;13.73;4.22;;;17.10;99.90;;;;;;5029591;28;20057;-74
2023/10/08 04:36:46;;;;;;;10.27;4.22;;;17.10;99.90;;;;;;5017968;28;20056;-74
2023/10/08 04:39:15;;;;;;;11.63;3.95;;;17.00;99.90;;;;;;5035290;28;20076;-73
2023/10/08 04:41:44;;;;;;;10.15;3.72;;;17.00;99.90;;;;;;5016584;28;20066;-73
2023/10/08 04:44:15;;;;;;;11.68;3.78;;;17.00;99.90;;;;;;5035018;28;20030;-73
2023/10/08 04:46:47;;;;;;;9.13;3.97;;;17.00;99.90;;;;;;5011257;28;20059;-74
2023/10/08 04:49:27;;;;;;;11.23;3.55;;;17.00;99.90;;;;;;5035908;28;20049;-74
2023/10/08 04:52:08;;;;;;;7.20;3.63;;;16.90;99.90;;;;;;5032804;28;20403;-73
2023/10/08 04:54:39;;;;;;;16.13;4.28;;;16.90;99.90;;;;;;5038860;28;20064;-74
2023/10/08 04:57:06;;;;;;;9.37;3.70;;;16.90;99.90;;;;;;5038605;28;20026;-74
2023/10/08 04:59:32;;;;;;;8.82;3.67;;;16.90;99.90;;;;;;5032309;28;20284;-73
2023/10/08 05:02:34;;;;;;;12.45;4.05;;;16.90;99.90;;;;;;5020835;28;20032;-74
2023/10/08 05:08:00;;;;;;;14.55;4.10;;;16.80;99.90;;;;;;5038178;28;20029;-73
2023/10/08 05:15:41;;;;;;;10.32;3.65;;;16.80;99.90;;;;;;5037022;28;20037;-74
2023/10/08 05:21:02;;;;;;;10.88;3.78;;;16.70;99.90;;;;;;5006270;28;20034;-73
2023/10/08 05:28:36;;;;;;;12.52;4.45;;;16.70;99.90;;;;;;5037335;28;20034;-74
2023/10/08 05:31:21;;;;;;;7.20;3.13;;;16.70;99.90;;;;;;5035933;28;20022;-73
2023/10/08 05:34:14;;;;;;;13.93;4.45;;;16.60;99.90;;;;;;5019451;28;20046;-74
2023/10/08 05:42:16;;;;;;;10.68;3.58;;;16.60;99.90;;;;;;5037062;28;20022;-73
2023/10/08 05:55:28;;;;;;;9.82;4.13;;;16.30;99.90;;;;;;5037487;28;20025;-75
2023/10/08 05:58:13;;;;;;;10.13;3.95;;;16.40;99.90;;;;;;5017954;28;20049;-73
2023/10/08 06:01:05;;;;;;;10.35;3.72;;;16.40;99.90;;;;;;5035509;28;20018;-74
2023/10/08 06:03:39;;;;;;;10.50;3.47;;;16.30;99.90;;;;;;5015782;28;20057;-74
2023/10/08 06:14:42;;;;;;;9.38;3.25;;;16.20;99.90;;;;;;5036793;28;20301;-73
2023/10/08 06:17:23;;;;;;;8.32;3.95;;;16.20;99.90;;;;;;5013091;28;20044;-74
2023/10/08 06:19:52;;;;;;;8.70;3.72;;;16.30;99.90;;;;;;5019311;28;20026;-74
2023/10/08 06:22:19;;;;;;;11.60;3.63;;;16.30;99.90;;;;;;5018111;28;20029;-74
2023/10/08 06:24:47;;;;;;;10.15;3.55;;;16.30;99.90;;;;;;5018688;28;20098;-74
2023/10/08 06:27:17;;;;;;;12.15;4.32;;;16.20;99.90;;;;;;5035846;28;20039;-74
2023/10/08 06:29:44;;;;;;;8.98;4.03;;;16.30;99.90;;;;;;5018435;28;20018;-73
2023/10/08 06:32:11;;;;;;;16.00;3.28;;;16.30;99.90;;;;;;5018606;28;20025;-73
2023/10/08 06:34:40;;;;;;;9.27;3.55;;;16.30;99.90;;;;;;5037614;28;20049;-74
2023/10/08 06:37:08;;;;;;;11.10;3.95;;;16.30;99.90;;;;;;5028673;28;20034;-75
2023/10/08 06:39:47;;;;;;;8.27;3.78;;;16.30;99.90;;;;;;5036583;28;20021;-75
2023/10/08 06:42:16;;;;;;;11.25;4.72;;;16.30;99.90;;;;;;5019439;28;20014;-73
2023/10/08 06:44:46;;;;;;;8.30;3.47;;;16.30;99.90;;;;;;5030422;28;20033;-74
2023/10/08 06:47:15;;;;;;;7.63;3.15;;;16.30;99.90;;;;;;5035186;28;20044;-73
2023/10/08 06:49:44;;;;;;;9.23;4.03;;;16.30;99.90;;;;;;5031032;28;20037;-74
2023/10/08 06:52:13;;;;;;;10.93;3.80;;;16.30;99.90;;;;;;5014100;28;21050;-73
2023/10/08 06:54:39;;;;;;;10.63;4.38;;;16.30;99.90;;;;;;5013450;28;20018;-74
2023/10/08 06:57:13;;;;;;;9.25;3.58;;;16.30;99.90;;;;;;5018544;28;20114;-73
2023/10/08 06:59:42;;;;;;;7.22;3.45;;;16.30;99.90;;;;;;5018215;28;20042;-73
2023/10/08 07:02:10;;;;;;;7.80;3.85;;;16.40;99.90;;;;;;5036946;28;20018;-73
2023/10/08 07:04:39;;;;;;;14.70;3.58;;;16.40;99.90;;;;;;5035581;28;20041;-73
2023/10/08 07:07:09;;;;;;;11.60;4.60;;;16.40;99.90;;;;;;5035429;28;20037;-73
2023/10/08 07:09:36;;;;;;;7.43;3.35;;;16.50;99.90;;;;;;5036405;28;20474;-73
2023/10/08 07:12:05;;;;;;;10.43;3.72;;;16.50;99.90;;;;;;5036459;28;20018;-73
2023/10/08 07:14:31;;;;;;;8.35;3.60;;;16.60;99.90;;;;;;5037002;28;20060;-73
2023/10/08 07:17:08;;;;;;;10.77;4.07;;;16.70;99.90;;;;;;5018101;28;20006;-73
2023/10/08 07:19:40;;;;;;;10.65;3.85;;;16.70;99.90;;;;;;5020787;28;20018;-73
2023/10/08 07:22:18;;;;;;;;;;;16.70;99.90;;;;;;5020861;28;20085;-73
2023/10/08 07:24:45;;;;;;;8.73;3.63;;;16.70;99.90;;;;;;5034518;28;19901;-73
2023/10/08 07:27:11;;;;;;;14.30;3.80;;;16.70;99.90;;;;;;5031571;28;20014;-73
2023/10/08 07:29:37;;;;;;;9.48;4.13;;;16.80;99.90;;;;;;5031898;28;20069;-73
2023/10/08 07:32:09;;;;;;;12.65;4.38;;;16.80;99.90;;;;;;5037678;28;20038;-73
2023/10/08 07:34:39;;;;;;;10.88;3.60;;;16.80;99.90;;;;;;5032447;28;20073;-73
2023/10/08 07:37:11;;;;;;;15.18;3.92;;;16.90;99.90;;;;;;5031626;28;20030;-73
2023/10/08 07:39:45;;;;;;;14.57;4.32;;;16.90;99.90;;;;;;5039550;28;20022;-73
2023/10/08 07:42:10;;;;;;;9.80;3.63;;;16.90;99.90;;;;;;5020376;28;20068;-74
2023/10/08 07:44:38;;;;;;;10.98;3.72;;;16.90;99.90;;;;;;5038810;28;20014;-73
2023/10/08 07:47:10;;;;;;;8.70;3.75;;;17.00;99.90;;;;;;5021115;28;20102;-74
2023/10/08 07:49:38;;;;;;;12.55;3.67;;;17.00;99.90;;;;;;5039058;28;20063;-72
2023/10/08 07:52:06;;;;;;;13.45;4.65;;;17.10;99.90;;;;;;5037509;28;20091;-74
2023/10/08 07:54:35;;;;;;;12.27;4.63;;;17.10;99.90;;;;;;5036693;28;20033;-73
2023/10/08 07:57:08;;;;;;;10.75;4.18;;;17.20;99.90;;;;;;5016861;28;20021;-73
2023/10/08 07:59:38;;;;;;;14.05;4.22;;;17.20;99.90;;;;;;5018324;28;20049;-76
2023/10/08 08:02:09;;;;;;;8.43;3.50;;;17.20;99.90;;;;;;5032957;28;20081;-73
2023/10/08 08:04:45;;;;;;;8.45;4.28;;;17.20;99.90;;;;;;5017754;28;20041;-73
2023/10/08 08:07:17;;;;;;;10.57;4.10;;;17.30;99.90;;;;;;5036304;28;20026;-74
2023/10/08 08:09:50;;;;;;;12.85;4.68;;;17.30;99.90;;;;;;5037530;28;20010;-73
2023/10/08 08:12:22;;;;;;;11.00;3.88;;;17.30;99.90;;;;;;5031803;28;20105;-73
2023/10/08 08:14:48;;;;;;;11.68;4.40;;;17.40;99.90;;;;;;5030777;28;20025;-73
2023/10/08 08:17:14;;;;;;;10.10;3.47;;;17.50;99.90;;;;;;5035593;28;20021;-73
2023/10/08 08:19:49;;;;;;;11.32;4.07;;;17.50;99.90;;;;;;5031617;28;20076;-73
2023/10/08 08:22:21;;;;;;;11.02;4.30;;;17.50;99.90;;;;;;5028564;28;20041;-73
2023/10/08 08:24:54;;;;;;;16.55;4.20;;;17.50;99.90;;;;;;5038928;28;20025;-72
2023/10/08 08:27:31;;;;;;;9.27;4.30;;;17.40;99.90;;;;;;5034431;28;20050;-73
2023/10/08 08:30:09;;;;;;;14.38;4.38;;;17.50;99.90;;;;;;5018729;28;20033;-74
2023/10/08 08:32:39;;;;;;;14.98;4.38;;;17.50;99.90;;;;;;5032203;28;20068;-73
2023/10/08 08:35:09;;;;;;;9.45;3.80;;;17.50;99.90;;;;;;5039160;28;20390;-73
2023/10/08 08:37:38;;;;;;;13.30;4.55;;;17.50;99.90;;;;;;5035803;28;20053;-73
2023/10/08 08:40:25;;;;;;;10.43;4.55;;;17.40;99.90;;;;;;5036479;28;20032;-73
2023/10/08 08:42:55;;;;;;;14.45;4.65;;;17.50;99.90;;;;;;5036334;28;20033;-73
2023/10/08 08:45:22;;;;;;;10.02;4.20;;;17.60;99.90;;;;;;5034299;28;20026;-73
2023/10/08 08:47:51;;;;;;;8.85;4.15;;;17.60;99.90;;;;;;5033875;28;20045;-73
2023/10/08 08:50:22;;;;;;;11.23;4.03;;;17.80;99.90;;;;;;5035011;28;20018;-72
2023/10/08 08:52:51;;;;;;;14.85;4.53;;;17.80;99.90;;;;;;5017760;28;20105;-74
2023/10/08 08:55:20;;;;;;;11.88;4.18;;;17.80;99.90;;;;;;5035377;28;20029;-73
2023/10/08 08:57:53;;;;;;;16.58;4.70;;;17.80;99.90;;;;;;5017645;28;20033;-72
2023/10/08 09:00:25;;;;;;;13.15;4.63;;;17.90;99.90;;;;;;5034359;28;20022;-73
2023/10/08 09:02:53;;;;;;;14.27;4.07;;;17.80;99.90;;;;;;5034957;28;20010;-72
2023/10/08 09:05:34;;;;;;;12.02;4.95;;;17.70;99.90;;;;;;5035083;28;20072;-73
2023/10/08 09:08:07;;;;;;;19.50;5.40;;;17.70;99.90;;;;;;5017027;28;20060;-74
2023/10/08 09:10:51;;;;;;;14.65;4.55;;;17.80;99.90;;;;;;5029930;28;20109;-73
2023/10/08 09:13:22;;;;;;;15.23;5.30;;;17.90;99.90;;;;;;5030253;28;20049;-76
2023/10/08 09:15:48;;;;;;;11.50;4.90;;;17.90;99.90;;;;;;5031557;28;20026;-73
2023/10/08 09:18:14;;;;;;;12.10;4.57;;;17.90;99.90;;;;;;5028736;28;20051;-79
2023/10/08 09:20:47;;;;;;;13.98;4.85;;;18.00;99.90;;;;;;5012988;28;20022;-74
2023/10/08 09:23:23;;;;;;;14.98;4.53;;;18.20;99.90;;;;;;5029582;28;20044;-79
2023/10/08 09:26:02;;;;;;;17.50;4.82;;;18.20;99.90;;;;;;5019347;28;20045;-80
2023/10/08 09:28:30;;;;;;;16.33;5.15;;;18.10;99.90;;;;;;5008920;28;20036;-81
2023/10/08 09:30:58;;;;;;;16.52;5.80;;;18.10;99.90;;;;;;5021538;28;20842;-76
2023/10/08 09:33:24;;;;;;;20.50;5.53;;;18.00;99.90;;;;;;4999586;28;20046;-79
2023/10/08 09:35:55;;;;;;;16.65;5.70;;;18.00;99.90;;;;;;5017438;28;20044;-76
2023/10/08 09:38:23;;;;;;;25.70;6.95;;;18.00;99.90;;;;;;5012938;28;20080;-81
2023/10/08 09:40:53;;;;;;;23.25;6.43;;;18.00;99.90;;;;;;4995186;28;20033;-78
2023/10/08 09:43:21;;;;;;;17.92;6.13;;;18.00;99.90;;;;;;5013433;28;20044;-79
2023/10/08 09:45:56;;;;;;;15.70;6.03;;;18.10;99.90;;;;;;5026462;28;20030;-77
2023/10/08 09:48:30;;;;;;;18.73;5.80;;;18.10;99.90;;;;;;5026293;28;20033;-73
2023/10/08 09:50:58;;;;;;;20.58;6.38;;;18.20;99.90;;;;;;5037450;28;20056;-74
2023/10/08 09:53:35;;;;;;;20.23;6.57;;;18.30;99.90;;;;;;5031669;28;20052;-74
2023/10/08 09:56:10;;;;;;;17.70;5.70;;;18.30;99.90;;;;;;5036497;28;20017;-72
2023/10/08 09:58:36;;;;;;;17.73;6.38;;;18.40;99.90;;;;;;5038885;28;20041;-72
2023/10/08 10:01:04;;;;;;;17.23;5.80;;;18.40;99.90;;;;;;5038146;28;20517;-73
2023/10/08 10:03:33;;;;;;;17.20;8.10;;;18.30;99.90;;;;;;5017963;28;20115;-76
2023/10/08 10:06:02;;;;;;;23.83;7.18;;;18.20;99.90;;;;;;5014041;28;20022;-80
2023/10/08 10:08:35;;;;;;;15.30;4.97;;;18.20;99.90;;;;;;5003402;28;20051;-72
2023/10/08 10:11:01;;;;;;;16.88;5.28;;;18.30;99.90;;;;;;5014839;28;20116;-76
2023/10/08 10:13:48;;;;;;;15.57;6.88;;;18.30;99.90;;;;;;5033112;28;20033;-82
2023/10/08 10:16:18;;;;;;;15.30;5.40;;;18.50;99.90;;;;;;5015856;28;20045;-82
2023/10/08 10:18:46;;;;;;;17.25;6.72;;;18.60;99.90;;;;;;5008627;28;20041;-82
2023/10/08 10:21:12;;;;;;;16.65;6.25;;;18.50;99.90;;;;;;5009425;28;20455;-80
2023/10/08 10:23:45;;;;;;;20.85;6.75;;;18.50;99.90;;;;;;5008587;28;20087;-82
2023/10/08 10:26:30;;;;;;;23.23;7.30;;;18.50;99.90;;;;;;5009377;28;20033;-83
2023/10/08 10:29:14;;;;;;;16.35;6.40;;;18.40;99.90;;;;;;5008951;28;20116;-83
2023/10/08 10:31:47;;;;;;;23.20;6.68;;;18.50;99.90;;;;;;5018632;28;20025;-73
2023/10/08 10:34:22;;;;;;;24.58;7.57;;;18.60;99.90;;;;;;5012126;28;20053;-84
2023/10/08 10:36:56;;;;;;;19.15;7.60;;;18.60;99.90;;;;;;5005028;28;20037;-82
2023/10/08 10:39:34;;;;;;;19.00;6.13;;;18.60;99.90;;;;;;4992179;28;20030;-86
2023/10/08 10:42:01;;;;;;;16.70;5.38;;;18.80;99.90;;;;;;4998901;28;20061;-83
2023/10/08 10:44:30;;;;;;;17.48;5.68;;;18.90;99.90;;;;;;5000409;28;20033;-82
2023/10/08 10:50:31;;;;;;;23.73;6.40;;;19.10;99.90;;;;;;5009018;28;20041;-86
2023/10/08 10:52:32;;;;;;;24.13;7.10;;;19.10;99.90;;;;;;5000549;28;20104;-84
2023/10/08 10:55:58;;;;;;;18.00;6.57;;;19.10;99.90;;;;;;4999894;28;20087;-80
2023/10/08 10:58:11;;;;;;;21.55;7.43;;;19.00;99.90;;;;;;5001395;28;20046;-86
2023/10/08 11:03:17;;;;;;;19.05;6.63;;;19.10;99.90;;;;;;5010275;28;20041;-87
2023/10/08 11:05:51;;;;;;;20.40;7.50;;;19.10;99.90;;;;;;4991999;28;20033;-82
2023/10/08 11:08:18;;;;;;;27.70;7.95;;;19.20;99.90;;;;;;5004320;28;20848;-82
2023/10/08 11:10:58;;;;;;;20.92;7.97;;;19.20;99.90;;;;;;5008683;28;20057;-84
2023/10/08 11:13:28;;;;;;;24.65;7.25;;;19.20;99.90;;;;;;4985374;28;20053;-87
2023/10/08 11:15:58;;;;;;;23.90;9.43;;;19.40;99.90;;;;;;5009314;28;20030;-88
2023/10/08 11:18:27;;;;;;;24.45;8.15;;;19.30;99.90;;;;;;5002495;28;20041;-84
2023/10/08 11:21:02;;;;;;;15.88;7.03;;;19.40;99.90;;;;;;4985151;28;20775;-83
2023/10/08 11:23:35;;;;;;;18.48;7.43;;;19.50;99.90;;;;;;5008239;28;20052;-82
2023/10/08 11:26:06;;;;;;;29.38;8.45;;;19.60;99.90;;;;;;5007587;28;20037;-84
2023/10/08 11:28:35;;;;;;;26.10;8.90;;;19.50;99.90;;;;;;5007097;28;20041;-84
2023/10/08 11:31:08;;;;;;;23.35;8.77;;;19.50;99.90;;;;;;5004199;28;20064;-85
2023/10/08 11:33:56;;;;;;;26.00;8.25;;;19.50;99.90;;;;;;4991086;28;20037;-88
2023/10/08 11:36:34;;;;;;;18.90;8.05;;;19.60;99.90;;;;;;5004699;28;20109;-86
2023/10/08 11:39:21;;;;;;;28.92;9.25;;;19.70;99.90;;;;;;5002789;28;20049;-85
2023/10/08 11:42:06;;;;;;;19.67;7.97;;;19.80;99.90;;;;;;5003762;28;20045;-85
2023/10/08 11:44:36;;;;;;;24.98;7.97;;;19.90;99.90;;;;;;5008334;28;20094;-83
2023/10/08 11:47:12;;;;;;;18.88;7.15;;;19.90;99.90;;;;;;5000726;28;20170;-87
2023/10/08 11:49:50;;;;;;;21.73;8.15;;;20.10;99.90;;;;;;5007889;28;20037;-87
2023/10/08 11:52:16;;;;;;;22.48;8.60;;;20.20;99.90;;;;;;5009953;28;20029;-80
2023/10/08 11:54:48;;;;;;;28.55;10.50;;;20.30;99.90;;;;;;5010742;28;20033;-79
2023/10/08 11:57:21;;;;;;;23.33;9.75;;;20.30;99.90;;;;;;5010196;28;20031;-80
2023/10/08 11:59:47;;;;;;;29.92;11.15;;;20.30;99.90;;;;;;4997822;28;20037;-82
2023/10/08 12:02:16;;;;;;;21.83;9.48;;;20.00;99.90;;;;;;5016239;28;20447;-79
2023/10/08 12:04:44;;;;;;;27.45;10.55;;;19.60;99.90;;;;;;5007785;28;20038;-78
2023/10/08 12:07:17;;;;;;;26.88;12.15;;;19.30;99.90;;;;;;5014821;28;20104;-80
2023/10/08 12:09:48;;;;;;;27.52;11.43;;;19.00;99.90;;;;;;5016139;28;20029;-81
2023/10/08 12:12:15;;;;;;;29.98;12.10;;;18.90;99.90;;;;;;5006526;28;20033;-80
2023/10/08 12:14:43;;;;;;;24.77;11.65;;;18.90;99.90;;;;;;5015085;28;20045;-83
2023/10/08 12:17:11;;;;;;;34.05;12.52;;;18.90;99.90;;;;;;4995834;28;20042;-80
2023/10/08 12:19:42;;;;;;;28.42;12.45;;;18.90;99.90;;;;;;4995753;28;20033;-79
2023/10/08 12:22:08;;;;;;;28.85;13.90;;;19.00;99.90;;;;;;4996872;28;20465;-78
2023/10/08 12:24:38;;;;;;;34.72;14.50;;;19.00;99.90;;;;;;5013975;28;20049;-80
2023/10/08 12:27:06;;;;;;;33.72;14.65;;;19.10;99.90;;;;;;5014098;28;20052;-79
2023/10/08 12:29:32;;;;;;;36.72;14.60;;;19.00;99.90;;;;;;5012745;28;20351;-78
2023/10/08 12:32:03;;;;;;;31.88;14.23;;;19.00;99.90;;;;;;5014041;28;20485;-78
2023/10/08 12:34:29;;;;;;;30.92;14.18;;;19.00;99.90;;;;;;5014739;28;20029;-78
2023/10/08 12:36:55;;;;;;;40.28;15.90;;;19.00;99.90;;;;;;4996157;28;21067;-78
2023/10/08 12:39:28;;;;;;;33.83;14.50;;;19.10;99.90;;;;;;5009515;28;20034;-77
2023/10/08 12:41:53;;;;;;;31.02;13.52;;;19.20;99.90;;;;;;5007024;28;20026;-77
2023/10/08 12:44:19;;;;;;;29.95;13.02;;;19.20;99.90;;;;;;5007679;28;20442;-78
2023/10/08 12:46:48;;;;;;;41.40;12.35;;;19.30;99.90;;;;;;4997538;28;20108;-77
2023/10/08 12:49:14;;;;;;;35.25;12.75;;;19.30;99.90;;;;;;5007266;28;20034;-78
2023/10/08 12:51:41;;;;;;;31.05;12.27;;;19.40;99.90;;;;;;4999728;28;20053;-78
2023/10/08 12:54:07;;;;;;;27.88;11.93;;;19.40;99.90;;;;;;4998329;28;20402;-79
2023/10/08 12:56:49;;;;;;;24.88;11.90;;;19.30;99.90;;;;;;4989886;28;20072;-79
2023/10/08 12:59:20;;;;;;;34.85;12.32;;;19.20;99.90;;;;;;5007561;28;20057;-78
2023/10/08 13:01:51;;;;;;;33.53;12.57;;;19.10;99.90;;;;;;5017222;28;20033;-79
2023/10/08 13:04:34;;;;;;;31.98;12.60;;;19.00;99.90;;;;;;5012146;28;20051;-79
2023/10/08 13:07:03;;;;;;;32.58;11.50;;;19.00;99.90;;;;;;4997608;28;20065;-76
2023/10/08 13:09:32;;;;;;;25.08;10.43;;;19.10;99.90;;;;;;4995815;28;20018;-79
2023/10/08 13:11:59;;;;;;;26.63;11.75;;;19.20;99.90;;;;;;4996556;28;20053;-78
2023/10/08 13:14:25;;;;;;;25.15;10.18;;;19.20;99.90;;;;;;4996951;28;20088;-78
2023/10/08 13:17:04;;;;;;;26.85;11.23;;;19.30;99.90;;;;;;4993276;28;20030;-80
2023/10/08 13:19:33;;;;;;;23.55;10.13;;;19.50;99.90;;;;;;5003567;28;20026;-79
2023/10/08 13:21:59;;;;;;;26.67;11.18;;;19.90;99.90;;;;;;4993867;28;20036;-81
2023/10/08 13:24:29;;;;;;;24.45;10.52;;;20.20;99.90;;;;;;5012408;28;20465;-77
2023/10/08 13:26:54;;;;;;;27.83;11.50;;;20.20;99.90;;;;;;5011380;28;20029;-78
2023/10/08 13:29:20;;;;;;;22.80;10.18;;;20.00;99.90;;;;;;4993956;28;20083;-79
2023/10/08 13:31:48;;;;;;;26.13;10.68;;;20.00;99.90;;;;;;5011266;28;20084;-78
2023/10/08 13:34:16;;;;;;;24.70;10.48;;;19.90;99.90;;;;;;5012499;28;20022;-79
2023/10/08 13:36:42;;;;;;;28.60;12.73;;;19.80;99.90;;;;;;5010403;28;20026;-79
2023/10/08 13:39:09;;;;;;;29.77;10.85;;;19.80;99.90;;;;;;4993008;28;20129;-79
2023/10/08 13:41:38;;;;;;;20.20;10.50;;;19.80;99.90;;;;;;5010863;28;20053;-78
2023/10/08 13:44:09;;;;;;;29.75;10.25;;;19.80;99.90;;;;;;5013126;28;20549;-78
2023/10/08 13:46:38;;;;;;;26.52;11.15;;;19.70;99.90;;;;;;5008883;28;20042;-77
2023/10/08 13:49:06;;;;;;;28.80;12.40;;;19.70;99.90;;;;;;4996174;28;20887;-79
2023/10/08 13:51:36;;;;;;;21.33;10.80;;;19.90;99.90;;;;;;4992726;28;20458;-79
2023/10/08 13:54:06;;;;;;;25.02;10.55;;;19.90;99.90;;;;;;5010174;28;20029;-80
2023/10/08 13:56:32;;;;;;;32.38;10.68;;;19.80;99.90;;;;;;4992557;28;20068;-78
2023/10/08 13:59:13;;;;;;;26.17;10.98;;;19.80;99.90;;;;;;4988635;28;20148;-77